sensor_id;sensor_type;location;lat;lon;timestamp;P1;durP1;ratioP1;P2;durP2;ratioP2
7783;SDS011;19359;51.402;6.778;2023-12-20T00:02:01;7.45;;;3.63;;
7783;SDS011;19359;51.402;6.778;2023-12-20T00:04:28;6.75;;;3.08;;
7783;SDS011;19359;51.402;6.778;2023-12-20T00:06:55;8.43;;;3.15;;
7783;SDS011;19359;51.402;6.778;2023-12-20T00:09:22;6.13;;;3.65;;
7783;SDS011;19359;51.402;6.778;2023-12-20T00:11:49;7.35;;;2.97;;
7783;SDS011;19359;51.402;6.778;2023-12-20T00:14:17;19.42;;;4.07;;
7783;SDS011;19359;51.402;6.778;2023-12-20T00:16:44;3.78;;;2.85;;
7783;SDS011;19359;51.402;6.778;2023-12-20T00:19:10;6.55;;;2.97;;
7783;SDS011;19359;51.402;6.778;2023-12-20T00:21:37;6.07;;;3.83;;
7783;SDS011;19359;51.402;6.778;2023-12-20T00:24:04;4.00;;;2.85;;
7783;SDS011;19359;51.402;6.778;2023-12-20T00:26:31;3.00;;;2.75;;
7783;SDS011;19359;51.402;6.778;2023-12-20T00:28:58;8.07;;;4.55;;
7783;SDS011;19359;51.402;6.778;2023-12-20T00:31:26;6.88;;;2.97;;
7783;SDS011;19359;51.402;6.778;2023-12-20T00:33:53;9.70;;;2.78;;
7783;SDS011;19359;51.402;6.778;2023-12-20T00:36:21;7.20;;;3.70;;
7783;SDS011;19359;51.402;6.778;2023-12-20T00:38:48;4.05;;;2.97;;
7783;SDS011;19359;51.402;6.778;2023-12-20T00:41:16;3.67;;;3.30;;
7783;SDS011;19359;51.402;6.778;2023-12-20T00:43:45;10.63;;;2.58;;
7783;SDS011;19359;51.402;6.778;2023-12-20T00:46:12;11.38;;;3.10;;
7783;SDS011;19359;51.402;6.778;2023-12-20T00:48:41;5.38;;;3.67;;
7783;SDS011;19359;51.402;6.778;2023-12-20T00:51:10;5.22;;;2.63;;
7783;SDS011;19359;51.402;6.778;2023-12-20T00:53:37;3.78;;;2.35;;
7783;SDS011;19359;51.402;6.778;2023-12-20T00:56:04;4.10;;;2.25;;
7783;SDS011;19359;51.402;6.778;2023-12-20T00:58:31;4.30;;;2.63;;
7783;SDS011;19359;51.402;6.778;2023-12-20T01:00:58;4.68;;;2.58;;
7783;SDS011;19359;51.402;6.778;2023-12-20T01:03:25;8.52;;;3.10;;
7783;SDS011;19359;51.402;6.778;2023-12-20T01:05:53;8.15;;;3.42;;
7783;SDS011;19359;51.402;6.778;2023-12-20T01:08:20;6.70;;;3.42;;
7783;SDS011;19359;51.402;6.778;2023-12-20T01:10:47;4.68;;;2.58;;
7783;SDS011;19359;51.402;6.778;2023-12-20T01:13:14;8.55;;;4.43;;
7783;SDS011;19359;51.402;6.778;2023-12-20T01:15:41;3.75;;;3.17;;
7783;SDS011;19359;51.402;6.778;2023-12-20T01:18:08;6.20;;;2.70;;
7783;SDS011;19359;51.402;6.778;2023-12-20T01:20:35;9.15;;;3.95;;
7783;SDS011;19359;51.402;6.778;2023-12-20T01:23:03;10.95;;;3.95;;
7783;SDS011;19359;51.402;6.778;2023-12-20T01:25:30;4.93;;;4.43;;
7783;SDS011;19359;51.402;6.778;2023-12-20T01:27:57;9.20;;;2.92;;
7783;SDS011;19359;51.402;6.778;2023-12-20T01:30:24;4.20;;;3.13;;
7783;SDS011;19359;51.402;6.778;2023-12-20T01:32:53;4.60;;;3.67;;
7783;SDS011;19359;51.402;6.778;2023-12-20T01:35:19;6.30;;;3.75;;
7783;SDS011;19359;51.402;6.778;2023-12-20T01:37:46;2.78;;;2.58;;
7783;SDS011;19359;51.402;6.778;2023-12-20T01:40:15;4.00;;;3.38;;
7783;SDS011;19359;51.402;6.778;2023-12-20T01:42:41;3.58;;;2.40;;
7783;SDS011;19359;51.402;6.778;2023-12-20T01:45:08;9.05;;;3.42;;
7783;SDS011;19359;51.402;6.778;2023-12-20T01:47:35;4.07;;;2.95;;
7783;SDS011;19359;51.402;6.778;2023-12-20T01:50:04;3.88;;;2.88;;
7783;SDS011;19359;51.402;6.778;2023-12-20T01:52:33;9.05;;;3.75;;
7783;SDS011;19359;51.402;6.778;2023-12-20T01:55:01;4.78;;;3.08;;
7783;SDS011;19359;51.402;6.778;2023-12-20T01:57:35;23.40;;;3.97;;
7783;SDS011;19359;51.402;6.778;2023-12-20T02:00:02;17.58;;;2.75;;
7783;SDS011;19359;51.402;6.778;2023-12-20T02:02:32;3.25;;;2.17;;
7783;SDS011;19359;51.402;6.778;2023-12-20T02:04:59;7.45;;;2.47;;
7783;SDS011;19359;51.402;6.778;2023-12-20T02:07:27;6.75;;;4.10;;
7783;SDS011;19359;51.402;6.778;2023-12-20T02:09:57;5.43;;;2.38;;
7783;SDS011;19359;51.402;6.778;2023-12-20T02:12:24;3.58;;;2.78;;
7783;SDS011;19359;51.402;6.778;2023-12-20T02:14:52;12.85;;;2.70;;
7783;SDS011;19359;51.402;6.778;2023-12-20T02:17:19;3.25;;;2.47;;
7783;SDS011;19359;51.402;6.778;2023-12-20T02:19:46;8.27;;;2.92;;
7783;SDS011;19359;51.402;6.778;2023-12-20T02:22:14;2.45;;;2.33;;
7783;SDS011;19359;51.402;6.778;2023-12-20T02:24:41;4.85;;;2.22;;
7783;SDS011;19359;51.402;6.778;2023-12-20T02:27:08;10.65;;;3.40;;
7783;SDS011;19359;51.402;6.778;2023-12-20T02:29:35;5.53;;;2.72;;
7783;SDS011;19359;51.402;6.778;2023-12-20T02:32:02;5.65;;;3.53;;
7783;SDS011;19359;51.402;6.778;2023-12-20T02:34:29;2.25;;;2.05;;
7783;SDS011;19359;51.402;6.778;2023-12-20T02:36:56;5.72;;;2.78;;
7783;SDS011;19359;51.402;6.778;2023-12-20T02:39:24;6.70;;;2.00;;
7783;SDS011;19359;51.402;6.778;2023-12-20T02:41:51;6.22;;;2.35;;
7783;SDS011;19359;51.402;6.778;2023-12-20T02:44:18;3.38;;;2.50;;
7783;SDS011;19359;51.402;6.778;2023-12-20T02:46:44;2.50;;;2.22;;
7783;SDS011;19359;51.402;6.778;2023-12-20T02:49:11;4.25;;;1.95;;
7783;SDS011;19359;51.402;6.778;2023-12-20T02:51:38;1.88;;;1.77;;
7783;SDS011;19359;51.402;6.778;2023-12-20T02:54:05;8.88;;;1.75;;
7783;SDS011;19359;51.402;6.778;2023-12-20T02:56:34;6.03;;;1.40;;
7783;SDS011;19359;51.402;6.778;2023-12-20T02:59:00;31.33;;;2.97;;
7783;SDS011;19359;51.402;6.778;2023-12-20T03:01:30;6.38;;;1.98;;
7783;SDS011;19359;51.402;6.778;2023-12-20T03:03:57;5.60;;;2.80;;
7783;SDS011;19359;51.402;6.778;2023-12-20T03:06:24;1.80;;;0.68;;
7783;SDS011;19359;51.402;6.778;2023-12-20T03:08:51;5.97;;;1.58;;
7783;SDS011;19359;51.402;6.778;2023-12-20T03:11:18;4.60;;;1.40;;
7783;SDS011;19359;51.402;6.778;2023-12-20T03:13:46;5.00;;;1.33;;
7783;SDS011;19359;51.402;6.778;2023-12-20T03:16:13;7.82;;;1.73;;
7783;SDS011;19359;51.402;6.778;2023-12-20T03:18:41;5.32;;;1.10;;
7783;SDS011;19359;51.402;6.778;2023-12-20T03:21:08;2.78;;;1.00;;
7783;SDS011;19359;51.402;6.778;2023-12-20T03:23:35;2.38;;;1.23;;
7783;SDS011;19359;51.402;6.778;2023-12-20T03:26:02;1.75;;;0.60;;
7783;SDS011;19359;51.402;6.778;2023-12-20T03:28:29;6.18;;;1.20;;
7783;SDS011;19359;51.402;6.778;2023-12-20T03:30:57;5.43;;;0.90;;
7783;SDS011;19359;51.402;6.778;2023-12-20T03:33:24;6.88;;;1.05;;
7783;SDS011;19359;51.402;6.778;2023-12-20T03:35:51;1.55;;;0.85;;
7783;SDS011;19359;51.402;6.778;2023-12-20T03:38:18;1.42;;;0.90;;
7783;SDS011;19359;51.402;6.778;2023-12-20T03:40:45;3.85;;;1.27;;
7783;SDS011;19359;51.402;6.778;2023-12-20T03:43:11;8.30;;;1.20;;
7783;SDS011;19359;51.402;6.778;2023-12-20T03:45:39;2.95;;;0.93;;
7783;SDS011;19359;51.402;6.778;2023-12-20T03:48:07;7.80;;;1.15;;
7783;SDS011;19359;51.402;6.778;2023-12-20T03:50:34;4.45;;;1.35;;
7783;SDS011;19359;51.402;6.778;2023-12-20T03:53:01;12.75;;;0.98;;
7783;SDS011;19359;51.402;6.778;2023-12-20T03:55:29;6.15;;;0.93;;
7783;SDS011;19359;51.402;6.778;2023-12-20T03:57:55;11.80;;;1.35;;
7783;SDS011;19359;51.402;6.778;2023-12-20T04:00:22;5.45;;;1.38;;
7783;SDS011;19359;51.402;6.778;2023-12-20T04:02:49;3.15;;;0.73;;
7783;SDS011;19359;51.402;6.778;2023-12-20T04:05:17;2.40;;;0.77;;
7783;SDS011;19359;51.402;6.778;2023-12-20T04:07:44;0.68;;;0.68;;
7783;SDS011;19359;51.402;6.778;2023-12-20T04:10:11;1.98;;;0.70;;
7783;SDS011;19359;51.402;6.778;2023-12-20T04:12:38;1.00;;;0.95;;
7783;SDS011;19359;51.402;6.778;2023-12-20T04:15:05;2.28;;;1.15;;
7783;SDS011;19359;51.402;6.778;2023-12-20T04:17:34;3.17;;;0.50;;
7783;SDS011;19359;51.402;6.778;2023-12-20T04:20:01;2.10;;;1.10;;
7783;SDS011;19359;51.402;6.778;2023-12-20T04:22:29;5.45;;;1.77;;
7783;SDS011;19359;51.402;6.778;2023-12-20T04:24:56;12.43;;;1.38;;
7783;SDS011;19359;51.402;6.778;2023-12-20T04:27:23;4.65;;;0.80;;
7783;SDS011;19359;51.402;6.778;2023-12-20T04:29:50;10.25;;;0.77;;
7783;SDS011;19359;51.402;6.778;2023-12-20T04:32:17;3.72;;;1.25;;
7783;SDS011;19359;51.402;6.778;2023-12-20T04:34:43;5.32;;;1.17;;
7783;SDS011;19359;51.402;6.778;2023-12-20T04:37:10;5.97;;;1.50;;
7783;SDS011;19359;51.402;6.778;2023-12-20T04:39:39;1.30;;;1.23;;
7783;SDS011;19359;51.402;6.778;2023-12-20T04:42:06;3.50;;;2.03;;
7783;SDS011;19359;51.402;6.778;2023-12-20T04:44:33;3.15;;;2.10;;
7783;SDS011;19359;51.402;6.778;2023-12-20T04:47:00;0.90;;;0.90;;
7783;SDS011;19359;51.402;6.778;2023-12-20T04:49:28;11.02;;;1.52;;
7783;SDS011;19359;51.402;6.778;2023-12-20T04:51:55;1.75;;;1.48;;
7783;SDS011;19359;51.402;6.778;2023-12-20T04:54:25;1.42;;;1.30;;
7783;SDS011;19359;51.402;6.778;2023-12-20T04:56:53;6.28;;;2.55;;
7783;SDS011;19359;51.402;6.778;2023-12-20T04:59:20;5.50;;;1.70;;
7783;SDS011;19359;51.402;6.778;2023-12-20T05:01:46;3.88;;;2.17;;
7783;SDS011;19359;51.402;6.778;2023-12-20T05:04:17;4.90;;;1.70;;
7783;SDS011;19359;51.402;6.778;2023-12-20T05:06:43;2.13;;;1.77;;
7783;SDS011;19359;51.402;6.778;2023-12-20T05:09:10;17.77;;;2.05;;
7783;SDS011;19359;51.402;6.778;2023-12-20T05:11:37;5.15;;;1.77;;
7783;SDS011;19359;51.402;6.778;2023-12-20T05:14:06;2.78;;;1.83;;
7783;SDS011;19359;51.402;6.778;2023-12-20T05:16:33;4.68;;;1.75;;
7783;SDS011;19359;51.402;6.778;2023-12-20T05:19:00;5.97;;;1.80;;
7783;SDS011;19359;51.402;6.778;2023-12-20T05:21:31;5.25;;;1.70;;
7783;SDS011;19359;51.402;6.778;2023-12-20T05:23:58;7.93;;;2.78;;
7783;SDS011;19359;51.402;6.778;2023-12-20T05:26:25;3.72;;;1.90;;
7783;SDS011;19359;51.402;6.778;2023-12-20T05:28:52;7.22;;;2.47;;
7783;SDS011;19359;51.402;6.778;2023-12-20T05:31:20;11.48;;;2.45;;
7783;SDS011;19359;51.402;6.778;2023-12-20T05:33:47;4.10;;;2.38;;
7783;SDS011;19359;51.402;6.778;2023-12-20T05:36:14;1.90;;;1.80;;
7783;SDS011;19359;51.402;6.778;2023-12-20T05:38:41;3.60;;;1.63;;
7783;SDS011;19359;51.402;6.778;2023-12-20T05:41:08;12.80;;;2.72;;
7783;SDS011;19359;51.402;6.778;2023-12-20T05:43:35;4.25;;;1.73;;
7783;SDS011;19359;51.402;6.778;2023-12-20T05:46:02;22.73;;;3.10;;
7783;SDS011;19359;51.402;6.778;2023-12-20T05:48:30;2.67;;;1.23;;
7783;SDS011;19359;51.402;6.778;2023-12-20T05:50:57;3.33;;;2.42;;
7783;SDS011;19359;51.402;6.778;2023-12-20T05:53:24;10.40;;;2.83;;
7783;SDS011;19359;51.402;6.778;2023-12-20T05:55:53;13.32;;;2.30;;
7783;SDS011;19359;51.402;6.778;2023-12-20T05:58:20;7.47;;;2.10;;
7783;SDS011;19359;51.402;6.778;2023-12-20T06:00:47;4.95;;;2.17;;
7783;SDS011;19359;51.402;6.778;2023-12-20T06:03:14;4.97;;;2.65;;
7783;SDS011;19359;51.402;6.778;2023-12-20T06:05:43;2.10;;;2.00;;
7783;SDS011;19359;51.402;6.778;2023-12-20T06:08:10;7.22;;;2.45;;
7783;SDS011;19359;51.402;6.778;2023-12-20T06:10:37;7.38;;;2.03;;
7783;SDS011;19359;51.402;6.778;2023-12-20T06:13:09;3.65;;;1.75;;
7783;SDS011;19359;51.402;6.778;2023-12-20T06:15:38;7.85;;;2.38;;
7783;SDS011;19359;51.402;6.778;2023-12-20T06:18:05;3.97;;;3.47;;
7783;SDS011;19359;51.402;6.778;2023-12-20T06:20:32;1.90;;;1.80;;
7783;SDS011;19359;51.402;6.778;2023-12-20T06:23:00;3.97;;;2.70;;
7783;SDS011;19359;51.402;6.778;2023-12-20T06:25:27;4.65;;;3.17;;
7783;SDS011;19359;51.402;6.778;2023-12-20T06:27:54;14.68;;;3.58;;
7783;SDS011;19359;51.402;6.778;2023-12-20T06:30:21;5.55;;;5.20;;
7783;SDS011;19359;51.402;6.778;2023-12-20T06:32:50;10.30;;;6.68;;
7783;SDS011;19359;51.402;6.778;2023-12-20T06:35:17;4.78;;;4.57;;
7783;SDS011;19359;51.402;6.778;2023-12-20T06:37:44;8.70;;;3.13;;
7783;SDS011;19359;51.402;6.778;2023-12-20T06:40:13;5.05;;;2.22;;
7783;SDS011;19359;51.402;6.778;2023-12-20T06:42:39;2.30;;;2.20;;
7783;SDS011;19359;51.402;6.778;2023-12-20T06:45:06;2.25;;;2.08;;
7783;SDS011;19359;51.402;6.778;2023-12-20T06:47:33;6.97;;;1.40;;
7783;SDS011;19359;51.402;6.778;2023-12-20T06:50:00;4.63;;;2.42;;
7783;SDS011;19359;51.402;6.778;2023-12-20T06:52:27;2.05;;;1.50;;
7783;SDS011;19359;51.402;6.778;2023-12-20T06:54:54;9.15;;;1.85;;
7783;SDS011;19359;51.402;6.778;2023-12-20T06:57:22;13.95;;;3.40;;
7783;SDS011;19359;51.402;6.778;2023-12-20T06:59:51;16.00;;;5.60;;
7783;SDS011;19359;51.402;6.778;2023-12-20T07:02:17;17.55;;;5.72;;
7783;SDS011;19359;51.402;6.778;2023-12-20T07:04:45;10.38;;;5.65;;
7783;SDS011;19359;51.402;6.778;2023-12-20T07:07:11;4.50;;;4.28;;
7783;SDS011;19359;51.402;6.778;2023-12-20T07:09:38;3.55;;;2.33;;
7783;SDS011;19359;51.402;6.778;2023-12-20T07:12:07;5.95;;;5.60;;
7783;SDS011;19359;51.402;6.778;2023-12-20T07:14:35;3.67;;;3.30;;
7783;SDS011;19359;51.402;6.778;2023-12-20T07:17:02;4.97;;;4.63;;
7783;SDS011;19359;51.402;6.778;2023-12-20T07:19:29;6.53;;;5.18;;
7783;SDS011;19359;51.402;6.778;2023-12-20T07:21:57;11.70;;;10.90;;
7783;SDS011;19359;51.402;6.778;2023-12-20T07:24:24;11.13;;;10.73;;
7783;SDS011;19359;51.402;6.778;2023-12-20T07:26:50;13.07;;;11.85;;
7783;SDS011;19359;51.402;6.778;2023-12-20T07:29:17;14.60;;;13.55;;
7783;SDS011;19359;51.402;6.778;2023-12-20T07:31:45;10.02;;;9.75;;
7783;SDS011;19359;51.402;6.778;2023-12-20T07:34:12;22.58;;;18.60;;
7783;SDS011;19359;51.402;6.778;2023-12-20T07:36:39;27.48;;;24.20;;
7783;SDS011;19359;51.402;6.778;2023-12-20T07:39:06;22.90;;;21.70;;
7783;SDS011;19359;51.402;6.778;2023-12-20T07:41:32;20.08;;;18.55;;
7783;SDS011;19359;51.402;6.778;2023-12-20T07:43:59;29.88;;;27.65;;
7783;SDS011;19359;51.402;6.778;2023-12-20T07:46:26;32.90;;;29.80;;
7783;SDS011;19359;51.402;6.778;2023-12-20T07:48:54;38.83;;;34.58;;
7783;SDS011;19359;51.402;6.778;2023-12-20T07:51:21;28.10;;;26.08;;
7783;SDS011;19359;51.402;6.778;2023-12-20T07:53:48;45.10;;;40.33;;
7783;SDS011;19359;51.402;6.778;2023-12-20T07:56:15;57.20;;;44.13;;
7783;SDS011;19359;51.402;6.778;2023-12-20T07:58:42;34.67;;;31.38;;
7783;SDS011;19359;51.402;6.778;2023-12-20T08:01:10;40.42;;;29.55;;
7783;SDS011;19359;51.402;6.778;2023-12-20T08:03:37;43.88;;;37.10;;
7783;SDS011;19359;51.402;6.778;2023-12-20T08:06:06;22.48;;;20.98;;
7783;SDS011;19359;51.402;6.778;2023-12-20T08:08:33;19.92;;;18.42;;
7783;SDS011;19359;51.402;6.778;2023-12-20T08:11:00;18.45;;;17.38;;
7783;SDS011;19359;51.402;6.778;2023-12-20T08:13:27;15.80;;;14.68;;
7783;SDS011;19359;51.402;6.778;2023-12-20T08:15:54;21.42;;;19.95;;
7783;SDS011;19359;51.402;6.778;2023-12-20T08:18:22;31.45;;;20.92;;
7783;SDS011;19359;51.402;6.778;2023-12-20T08:20:49;16.42;;;15.18;;
7783;SDS011;19359;51.402;6.778;2023-12-20T08:23:19;18.42;;;16.05;;
7783;SDS011;19359;51.402;6.778;2023-12-20T08:25:46;13.02;;;12.18;;
7783;SDS011;19359;51.402;6.778;2023-12-20T08:28:13;22.63;;;20.80;;
7783;SDS011;19359;51.402;6.778;2023-12-20T08:30:40;13.20;;;12.40;;
7783;SDS011;19359;51.402;6.778;2023-12-20T08:33:07;19.90;;;18.75;;
7783;SDS011;19359;51.402;6.778;2023-12-20T08:35:36;28.17;;;25.98;;
7783;SDS011;19359;51.402;6.778;2023-12-20T08:38:03;36.35;;;33.00;;
7783;SDS011;19359;51.402;6.778;2023-12-20T08:40:31;24.45;;;22.38;;
7783;SDS011;19359;51.402;6.778;2023-12-20T08:42:58;86.90;;;55.38;;
7783;SDS011;19359;51.402;6.778;2023-12-20T08:45:25;52.55;;;43.25;;
7783;SDS011;19359;51.402;6.778;2023-12-20T08:47:52;52.20;;;44.33;;
7783;SDS011;19359;51.402;6.778;2023-12-20T08:50:18;270.00;;;99.10;;
7783;SDS011;19359;51.402;6.778;2023-12-20T08:52:46;106.47;;;59.72;;
7783;SDS011;19359;51.402;6.778;2023-12-20T08:55:13;331.08;;;85.88;;
7783;SDS011;19359;51.402;6.778;2023-12-20T08:57:43;356.95;;;88.32;;
7783;SDS011;19359;51.402;6.778;2023-12-20T09:00:10;403.05;;;97.70;;
7783;SDS011;19359;51.402;6.778;2023-12-20T09:02:38;406.10;;;98.45;;
7783;SDS011;19359;51.402;6.778;2023-12-20T09:05:05;396.25;;;95.32;;
7783;SDS011;19359;51.402;6.778;2023-12-20T09:07:32;407.45;;;100.63;;
7783;SDS011;19359;51.402;6.778;2023-12-20T09:09:59;391.38;;;95.28;;
7783;SDS011;19359;51.402;6.778;2023-12-20T09:12:26;428.88;;;104.25;;
7783;SDS011;19359;51.402;6.778;2023-12-20T09:14:54;430.23;;;102.35;;
7783;SDS011;19359;51.402;6.778;2023-12-20T09:17:21;448.63;;;104.53;;
7783;SDS011;19359;51.402;6.778;2023-12-20T09:19:48;464.65;;;105.25;;
7783;SDS011;19359;51.402;6.778;2023-12-20T09:22:17;473.10;;;108.53;;
7783;SDS011;19359;51.402;6.778;2023-12-20T09:24:44;492.75;;;110.22;;
7783;SDS011;19359;51.402;6.778;2023-12-20T09:27:11;475.13;;;101.78;;
7783;SDS011;19359;51.402;6.778;2023-12-20T09:29:38;486.63;;;107.45;;
7783;SDS011;19359;51.402;6.778;2023-12-20T09:32:06;478.27;;;108.15;;
7783;SDS011;19359;51.402;6.778;2023-12-20T09:34:33;490.27;;;109.32;;
7783;SDS011;19359;51.402;6.778;2023-12-20T09:37:02;510.42;;;110.03;;
7783;SDS011;19359;51.402;6.778;2023-12-20T09:39:30;521.50;;;112.43;;
7783;SDS011;19359;51.402;6.778;2023-12-20T09:42:00;558.08;;;116.35;;
7783;SDS011;19359;51.402;6.778;2023-12-20T09:44:28;561.60;;;118.40;;
7783;SDS011;19359;51.402;6.778;2023-12-20T09:46:55;573.30;;;118.18;;
7783;SDS011;19359;51.402;6.778;2023-12-20T09:49:24;578.38;;;118.68;;
7783;SDS011;19359;51.402;6.778;2023-12-20T09:51:53;579.60;;;120.63;;
7783;SDS011;19359;51.402;6.778;2023-12-20T09:54:23;583.38;;;117.18;;
7783;SDS011;19359;51.402;6.778;2023-12-20T09:56:53;591.22;;;120.47;;
7783;SDS011;19359;51.402;6.778;2023-12-20T09:59:20;592.03;;;121.00;;
7783;SDS011;19359;51.402;6.778;2023-12-20T10:01:47;606.90;;;121.57;;
7783;SDS011;19359;51.402;6.778;2023-12-20T10:04:14;610.38;;;122.15;;
7783;SDS011;19359;51.402;6.778;2023-12-20T10:06:43;598.63;;;123.90;;
7783;SDS011;19359;51.402;6.778;2023-12-20T10:09:11;584.58;;;120.65;;
7783;SDS011;19359;51.402;6.778;2023-12-20T10:11:38;577.83;;;118.72;;
7783;SDS011;19359;51.402;6.778;2023-12-20T10:14:06;575.80;;;119.43;;
7783;SDS011;19359;51.402;6.778;2023-12-20T10:16:33;575.78;;;119.45;;
7783;SDS011;19359;51.402;6.778;2023-12-20T10:19:00;598.50;;;123.75;;
7783;SDS011;19359;51.402;6.778;2023-12-20T10:21:27;611.90;;;120.10;;
7783;SDS011;19359;51.402;6.778;2023-12-20T10:23:58;614.17;;;123.13;;
7783;SDS011;19359;51.402;6.778;2023-12-20T10:26:25;640.78;;;126.55;;
7783;SDS011;19359;51.402;6.778;2023-12-20T10:28:53;655.33;;;129.13;;
7783;SDS011;19359;51.402;6.778;2023-12-20T10:31:26;666.78;;;127.30;;
7783;SDS011;19359;51.402;6.778;2023-12-20T10:33:55;661.70;;;128.00;;
7783;SDS011;19359;51.402;6.778;2023-12-20T10:36:23;675.65;;;127.93;;
7783;SDS011;19359;51.402;6.778;2023-12-20T10:38:51;677.53;;;131.60;;
7783;SDS011;19359;51.402;6.778;2023-12-20T10:41:22;670.40;;;127.22;;
7783;SDS011;19359;51.402;6.778;2023-12-20T10:43:52;667.90;;;126.53;;
7783;SDS011;19359;51.402;6.778;2023-12-20T10:46:21;647.20;;;129.57;;
7783;SDS011;19359;51.402;6.778;2023-12-20T10:48:48;649.30;;;125.50;;
7783;SDS011;19359;51.402;6.778;2023-12-20T10:51:18;652.03;;;128.20;;
7783;SDS011;19359;51.402;6.778;2023-12-20T10:53:46;637.85;;;123.78;;
7783;SDS011;19359;51.402;6.778;2023-12-20T10:56:15;646.50;;;127.07;;
7783;SDS011;19359;51.402;6.778;2023-12-20T10:58:44;654.88;;;128.93;;
7783;SDS011;19359;51.402;6.778;2023-12-20T11:01:12;652.45;;;129.75;;
7783;SDS011;19359;51.402;6.778;2023-12-20T11:03:42;664.78;;;129.32;;
7783;SDS011;19359;51.402;6.778;2023-12-20T11:06:14;680.75;;;136.07;;
7783;SDS011;19359;51.402;6.778;2023-12-20T11:08:54;674.60;;;129.43;;
7783;SDS011;19359;51.402;6.778;2023-12-20T11:11:34;669.70;;;127.82;;
7783;SDS011;19359;51.402;6.778;2023-12-20T11:14:06;673.00;;;128.25;;
7783;SDS011;19359;51.402;6.778;2023-12-20T11:16:40;686.97;;;129.85;;
7783;SDS011;19359;51.402;6.778;2023-12-20T11:19:07;672.75;;;128.52;;
7783;SDS011;19359;51.402;6.778;2023-12-20T11:21:34;677.38;;;126.47;;
7783;SDS011;19359;51.402;6.778;2023-12-20T11:24:01;683.30;;;133.38;;
7783;SDS011;19359;51.402;6.778;2023-12-20T11:26:29;676.42;;;132.80;;
7783;SDS011;19359;51.402;6.778;2023-12-20T11:29:06;681.40;;;134.52;;
7783;SDS011;19359;51.402;6.778;2023-12-20T11:31:57;684.40;;;130.27;;
7783;SDS011;19359;51.402;6.778;2023-12-20T11:34:26;693.05;;;135.38;;
7783;SDS011;19359;51.402;6.778;2023-12-20T11:36:57;686.40;;;133.13;;
7783;SDS011;19359;51.402;6.778;2023-12-20T11:39:25;689.33;;;133.23;;
7783;SDS011;19359;51.402;6.778;2023-12-20T11:41:54;689.22;;;130.95;;
7783;SDS011;19359;51.402;6.778;2023-12-20T11:44:24;687.53;;;134.02;;
7783;SDS011;19359;51.402;6.778;2023-12-20T11:46:52;689.28;;;132.80;;
7783;SDS011;19359;51.402;6.778;2023-12-20T11:49:22;690.10;;;131.43;;
7783;SDS011;19359;51.402;6.778;2023-12-20T11:51:50;688.38;;;129.27;;
7783;SDS011;19359;51.402;6.778;2023-12-20T11:54:17;679.92;;;127.60;;
7783;SDS011;19359;51.402;6.778;2023-12-20T11:56:44;684.08;;;133.35;;
7783;SDS011;19359;51.402;6.778;2023-12-20T11:59:11;683.08;;;128.57;;
7783;SDS011;19359;51.402;6.778;2023-12-20T12:01:39;690.63;;;129.55;;
7783;SDS011;19359;51.402;6.778;2023-12-20T12:04:13;686.25;;;130.93;;
7783;SDS011;19359;51.402;6.778;2023-12-20T12:06:42;686.35;;;129.60;;
7783;SDS011;19359;51.402;6.778;2023-12-20T12:09:09;684.92;;;128.05;;
7783;SDS011;19359;51.402;6.778;2023-12-20T12:11:36;678.55;;;128.77;;
7783;SDS011;19359;51.402;6.778;2023-12-20T12:14:03;664.63;;;128.38;;
7783;SDS011;19359;51.402;6.778;2023-12-20T12:16:30;661.38;;;127.40;;
7783;SDS011;19359;51.402;6.778;2023-12-20T12:18:58;679.17;;;131.15;;
7783;SDS011;19359;51.402;6.778;2023-12-20T12:21:25;675.60;;;127.43;;
7783;SDS011;19359;51.402;6.778;2023-12-20T12:23:53;681.72;;;128.85;;
7783;SDS011;19359;51.402;6.778;2023-12-20T12:26:19;681.05;;;129.88;;
7783;SDS011;19359;51.402;6.778;2023-12-20T12:28:46;682.35;;;128.27;;
7783;SDS011;19359;51.402;6.778;2023-12-20T12:31:13;691.97;;;130.88;;
7783;SDS011;19359;51.402;6.778;2023-12-20T12:33:41;684.45;;;128.38;;
7783;SDS011;19359;51.402;6.778;2023-12-20T12:36:10;677.65;;;126.30;;
7783;SDS011;19359;51.402;6.778;2023-12-20T12:38:41;673.63;;;125.00;;
7783;SDS011;19359;51.402;6.778;2023-12-20T12:41:07;665.35;;;121.65;;
7783;SDS011;19359;51.402;6.778;2023-12-20T12:43:35;666.20;;;121.78;;
7783;SDS011;19359;51.402;6.778;2023-12-20T12:46:02;666.55;;;123.43;;
7783;SDS011;19359;51.402;6.778;2023-12-20T12:48:29;670.83;;;127.00;;
7783;SDS011;19359;51.402;6.778;2023-12-20T12:50:56;679.53;;;127.60;;
7783;SDS011;19359;51.402;6.778;2023-12-20T12:53:25;679.63;;;125.35;;
7783;SDS011;19359;51.402;6.778;2023-12-20T12:55:52;678.63;;;126.93;;
7783;SDS011;19359;51.402;6.778;2023-12-20T12:58:20;676.95;;;126.75;;
7783;SDS011;19359;51.402;6.778;2023-12-20T13:00:47;676.50;;;126.72;;
7783;SDS011;19359;51.402;6.778;2023-12-20T13:03:16;675.00;;;124.97;;
7783;SDS011;19359;51.402;6.778;2023-12-20T13:05:43;677.40;;;125.72;;
7783;SDS011;19359;51.402;6.778;2023-12-20T13:08:10;676.35;;;122.43;;
7783;SDS011;19359;51.402;6.778;2023-12-20T13:10:38;674.95;;;126.28;;
7783;SDS011;19359;51.402;6.778;2023-12-20T13:13:08;676.72;;;126.32;;
7783;SDS011;19359;51.402;6.778;2023-12-20T13:15:34;675.13;;;124.25;;
7783;SDS011;19359;51.402;6.778;2023-12-20T13:18:01;671.00;;;122.40;;
7783;SDS011;19359;51.402;6.778;2023-12-20T13:20:29;671.00;;;123.00;;
7783;SDS011;19359;51.402;6.778;2023-12-20T13:22:56;670.05;;;120.72;;
7783;SDS011;19359;51.402;6.778;2023-12-20T13:25:23;670.53;;;121.28;;
7783;SDS011;19359;51.402;6.778;2023-12-20T13:27:51;667.53;;;122.22;;
7783;SDS011;19359;51.402;6.778;2023-12-20T13:30:19;648.28;;;114.07;;
7783;SDS011;19359;51.402;6.778;2023-12-20T13:32:46;646.45;;;113.32;;
7783;SDS011;19359;51.402;6.778;2023-12-20T13:35:14;646.13;;;116.38;;
7783;SDS011;19359;51.402;6.778;2023-12-20T13:37:41;658.28;;;116.60;;
7783;SDS011;19359;51.402;6.778;2023-12-20T13:40:09;644.05;;;115.95;;
7783;SDS011;19359;51.402;6.778;2023-12-20T13:42:37;642.95;;;115.88;;
7783;SDS011;19359;51.402;6.778;2023-12-20T13:45:06;643.05;;;113.30;;
7783;SDS011;19359;51.402;6.778;2023-12-20T13:47:33;649.35;;;115.60;;
7783;SDS011;19359;51.402;6.778;2023-12-20T13:50:01;639.50;;;112.60;;
7783;SDS011;19359;51.402;6.778;2023-12-20T13:52:29;636.33;;;109.07;;
7783;SDS011;19359;51.402;6.778;2023-12-20T13:54:56;635.60;;;112.63;;
7783;SDS011;19359;51.402;6.778;2023-12-20T13:57:23;642.08;;;114.45;;
7783;SDS011;19359;51.402;6.778;2023-12-20T13:59:50;645.58;;;114.03;;
7783;SDS011;19359;51.402;6.778;2023-12-20T14:02:18;646.28;;;114.13;;
7783;SDS011;19359;51.402;6.778;2023-12-20T14:04:45;641.97;;;115.10;;
7783;SDS011;19359;51.402;6.778;2023-12-20T14:07:12;654.13;;;118.85;;
7783;SDS011;19359;51.402;6.778;2023-12-20T14:09:38;658.10;;;124.07;;
7783;SDS011;19359;51.402;6.778;2023-12-20T14:12:10;655.25;;;118.13;;
7783;SDS011;19359;51.402;6.778;2023-12-20T14:14:37;659.88;;;119.97;;
7783;SDS011;19359;51.402;6.778;2023-12-20T14:17:04;657.33;;;124.05;;
7783;SDS011;19359;51.402;6.778;2023-12-20T14:19:33;661.03;;;121.30;;
7783;SDS011;19359;51.402;6.778;2023-12-20T14:22:00;654.13;;;119.57;;
7783;SDS011;19359;51.402;6.778;2023-12-20T14:24:28;656.78;;;117.38;;
7783;SDS011;19359;51.402;6.778;2023-12-20T14:26:57;7.35;;;2.08;;
7783;SDS011;19359;51.402;6.778;2023-12-20T14:29:24;5.20;;;1.63;;
7783;SDS011;19359;51.402;6.778;2023-12-20T14:31:52;2.53;;;2.38;;
7783;SDS011;19359;51.402;6.778;2023-12-20T14:34:19;20.08;;;2.60;;
7783;SDS011;19359;51.402;6.778;2023-12-20T14:36:47;3.17;;;2.30;;
7783;SDS011;19359;51.402;6.778;2023-12-20T14:39:14;6.65;;;2.35;;
7783;SDS011;19359;51.402;6.778;2023-12-20T14:41:42;4.38;;;1.95;;